To NAV CANADA Home Page Login to a new session Search on AWWS site Feedback and Comments Disclaimer Vers la page française équivalente Tips FAQ What's new on the site To the Forecasts and Observations / NOTAM section To "File a Flight Plan" website Publications and other links Update of the User's profile FIC Telephone Numbers My Weather Data Folder Route Weather Data Regional Weather Data Local Weather Data To the Forecasts and Observations / NOTAM section
Request Generated 04/16/2014 at 15:58:47 UTC . Weather information available at that time is displayed.

METAR/TAF

NAIN/NL    

SPECI CYDP 161540Z 29020G25KT 15SM FEW020 SCT085 RMK SC2AC2=
SPECI CYDP 161506Z 30015G20KT 4SM -SN SCT004 OVC020 RMK ST3SC5=
METAR CYDP 161500Z 30017KT 1 1/2SM -SN OVC009 M02/M05 A2919 RMK SN6ST2 SLP884=
SPECI CYDP 161428Z 30015KT 1 1/2SM -SN OVC009 RMK SN5SF3=
SPECI CYDP 161419Z 31016KT 3SM -SN OVC020 RMK SN4SC4=
METAR CYDP 161400Z 30014G19KT 6SM -SN SCT005 OVC020 M02/M05 A2920 RMK ST3SC5 OCNL DRSN SLP890=
SPECI CYDP 161329Z 30016KT 6SM -SN SCT005 OVC020 RMK ST3SC5 OCNL DRSN=
METAR CYDP 161300Z 30014KT 3SM -SN OVC011 M03/M05 A2920 RMK SN4SC4 OCNL DRSN SLP890=

TAF AMD CYDP 161445Z 1614/1623 30012KT P6SM -SN SCT015 OVC030 TEMPO
1614/1616 11/2SM -SN OVC012
FM161600 29015G25KT P6SM BKN040 OVC100
BECMG 1616/1617 29020G35KT
FM161800 28030G40KT P6SM BKN050
BECMG 1620/1622 28025G35KT
RMK NXT FCST BY 162000Z=
Your time UTC time
Weather data provided by Environment Canada and NAV CANADA